x

Buoy E01 - Central Maine Shelf (44032) Wave Buoy

2:04am - Tue 2nd Sep 2014 All times are EDT. -4 hours from GMT.

  • Sig Wave height 2.6ft
  • Peak Period 5s
  • Wind
    9mph, 11mph gusts
  • Sea Temp 62°f
  • 空気 Temp 62°f
  • Sea Pressure 1012.4mb
  • Buoy E01 - Central Maine Shelf
  • Buoy E01 - Central Maine Shelf

More Historic Weather Station data

Upgrade to MSW Pro to gain access to the past 30 days of data for over 8000 Wavebouys and Weather Stations around the globe.

Join Pro

Comparision Forecast

View Surf forecast
   
Tue 09/02 2:04am 2.5ft 5s 9 11 mph 1012.4mb 62f 62f
1:04am 2.5ft 6s 4
mph
1012.5mb 64f 63f
12:04am 2.5ft 8s 4
mph
1012.5mb 64f 63f
Mon 09/01 11:04pm 2.5ft 6s 4 7 mph 1012.7mb 64f 64f
10:04pm 2.5ft 6s 7
mph
1013.1mb 65f 64f
9:04pm 2.5ft 6s 7
mph
1012.9mb 65f 64f
8:04pm 2.5ft 6s 4 7 mph 1012.6mb 65f 65f
7:04pm 3ft 6s 4
mph
1012mb 64f 66f
6:04pm 2.5ft 6s 7
mph
1011.7mb 65f 68f
5:04pm 2.5ft 6s 4 7 mph 1012mb 65f 67f
4:04pm 2.5ft 5s 7 9 mph 1012.1mb 65f 67f
3:04pm 3ft 5s 11
mph
1012.4mb 65f 66f
2:04pm 3.5ft 6s 7 9 mph 1012.9mb 65f 66f
1:04pm 3.5ft 6s 7
mph
1013mb 64f 65f
12:04pm 3.5ft 6s 7
mph
1013mb 64f 65f
11:04am 3.5ft 5s 4 7 mph 1013.5mb 63f 64f
10:04am 3ft 6s 4
mph
1013.6mb 62f 63f
9:04am 3ft 6s 4 7 mph 1013.5mb 62f 63f
8:04am 3ft 6s 4 7 mph 1013.4mb 62f 63f
7:04am 3.5ft 6s 2
mph
1013.3mb 62f 63f
6:04am 3.5ft 5s 2
mph
1012.9mb 62f 63f
5:04am 3ft 6s 4
mph
1012.5mb 62f 63f
4:04am 3ft 6s 9
mph
1012.1mb 62f 65f
3:04am 3.5ft 5s 9 13 mph 1011.8mb 62f 65f
2:04am 3.5ft 5s 9 11 mph 1011.6mb 62f 64f
1:04am 3.5ft 6s 9
mph
1012.1mb 62f 64f
12:04am 3ft 6s 9 11 mph 1012.9mb 62f 65f
Sun 08/31 11:04pm 2.5ft 6s 7 9 mph 1013mb 62f 64f
10:04pm 3ft 5s 11 13 mph 1013.5mb 62f 65f
9:04pm 2.5ft 5s 13
mph
1013.3mb 62f 66f
8:04pm 3.5ft 5s 11 13 mph 1013mb 62f 65f
6:04pm 3.5ft 5s 13
mph
1012.8mb 62f 66f
5:04pm 3.5ft 5s 16 18 mph 1012.5mb 62f 66f
4:04pm 4.5ft 5s 16 18 mph 1012.5mb 62f 66f
3:04pm 4.5ft 6s 16 18 mph 1012.9mb 62f 66f
2:04pm 4.5ft 5s 13 18 mph 1013.5mb 62f 65f
1:04pm 4.5ft 5s 16 18 mph 1014mb 62f 65f
12:04pm 4.5ft 5s 16 20 mph 1014.4mb 62f 65f
11:04am 5ft 6s 16 18 mph 1015.2mb 62f 65f
10:04am 5ft 6s 20 25 mph 1015.6mb 61f 65f
9:04am 5ft 6s 20 22 mph 1015.9mb 61f 64f
8:04am 5ft 6s 20 25 mph 1016.2mb 62f 65f
7:04am 4.5ft 6s 20 25 mph 1016.2mb 62f 64f
6:04am 5ft 5s 20 25 mph 1016.2mb 62f 64f
5:04am 5ft 6s 20 22 mph 1016.2mb 62f 64f
4:04am 5ft 6s 20 25 mph 1016.5mb 62f 64f
3:04am 5ft 6s 20 25 mph 1017mb 62f 64f
2:04am 5.5ft 5s 20 25 mph 1017.6mb 62f 64f
1:04am 5.5ft 6s 20 22 mph 1018.1mb 62f 64f
12:04am 6ft 6s 22 27 mph 1018.6mb 62f 64f
Sat 08/30 11:04pm 5.5ft 5s 20 22 mph 1018.9mb 62f 64f
10:04pm 4.5ft 5s 20 22 mph 1019.2mb 62f 64f
9:04pm 4ft 5s 18 22 mph 1019.6mb 62f 64f
8:04pm 3.5ft 5s 18 20 mph 1019.7mb 62f 64f
7:04pm 3ft 5s 16 20 mph 1019.8mb 62f 63f
6:04pm 2.5ft 5s 18 20 mph 1020.3mb 61f 64f
5:04pm 2.5ft 5s 16 20 mph 1020.8mb 62f 63f
4:04pm 3ft 11s 13 16 mph 1021.7mb 62f 63f
3:04pm 2.5ft 4s 13 16 mph 1022.2mb 61f 63f
2:04pm 2.5ft 4s 16 18 mph 1022.8mb 61f 63f
1:04pm 2ft 4s 16 18 mph 1023.7mb 61f 63f
12:04pm 3ft 8s 13 18 mph 1024.1mb 61f 62f
11:04am 2ft 4s 13 16 mph 1024.6mb 60f 62f
10:04am 3ft 11s 11 13 mph 1024.9mb 60f 63f
9:04am 2.5ft 8s 9 11 mph 1024.9mb 60f 62f
8:04am 3ft 11s 9 11 mph 1025.1mb 60f 62f
7:04am 2.5ft 11s 9 11 mph 1025.1mb 60f 61f
6:04am 2ft 11s 7
mph
1024.9mb 60f 60f
5:04am 2.5ft 11s 7
mph
1024.7mb 60f 61f
4:04am 1ft 5s 9
mph
1024.3mb 60f 61f
3:04am  -   -  9 11 mph 1024.5mb 60f 62f
2:04am 2.5ft 11s 9 11 mph 1024.3mb 61f 62f
1:04am 2.5ft 11s 11 13 mph 1024.1mb 61f 62f
12:04am 2.5ft 11s 7 9 mph 1023.8mb 61f 61f
Fri 08/29 11:04pm 3.5ft 11s 9 11 mph 1023.8mb 61f 62f
10:04pm 2.5ft 11s 9 11 mph 1023.5mb 61f 62f
9:04pm 3.5ft 11s 7 9 mph 1023.4mb 61f 61f
8:04pm 3.5ft 11s 9
mph
1023.1mb 61f 62f
7:04pm 4.5ft 11s 9 11 mph 1022.6mb 61f 61f
6:04pm 4.5ft 11s 11 13 mph 1022.2mb 62f 62f
5:04pm 2.5ft 11s 9 11 mph 1021.7mb 62f 63f
4:04pm 3ft 11s 7 9 mph 1021.4mb 62f 62f
3:04pm 2.5ft 11s 4 7 mph 1021.4mb 62f 62f
2:04pm 3.5ft 11s 7 9 mph 1021.4mb 62f 62f
1:04pm 4.5ft 11s 4 7 mph 1021.6mb 61f 61f
12:04pm 1.3ft 3s 7 9 mph 1021.4mb 61f 60f
11:04am 1.6ft 3s 11 13 mph 1021.3mb 60f 60f
10:04am 2ft 3s 9 13 mph 1020.9mb 60f 60f
9:04am 1.3ft 3s 13 16 mph 1020.1mb 60f 59f
8:04am 1.6ft 3s 13 18 mph 1019mb 60f 59f